メインページ
METAR-TAF:

METAR-TAF

空港 :

ワガドゥグー空港

ワガドゥグー, ブルキナファソ

緯度: 12-21N, 経度: 001-31W, 海抜: 316m

現時点の気象観測

当レポートは55分前の22:00(UTC)に作成
西/南西の風 8kt
気温 32°C
湿度 52%
気圧 1013 hPa
視程10km以上
1,500メートル以下は雲なし、積乱雲なし

METAR: DFFD 182200Z 24008KT CAVOK 32/21 Q1013 NOSIG

時間: 22:55 (22:55 UTC)

予報

当レポートは5時間55分前の17:00(UTC)に作成
予報は18日の 18時(UTC)から 19日の 24時(UTC)まで有効
西/南西の風 10kt
視程10km以上
高度2600ftの雲はほとんどない
18日の 18時(UTC)から 18日の 24時(UTC)まで一時的に
高度2600ftの雲はほとんどない
高度3300ftの雲はほとんどない, 積乱雲.
激しい雷雨
19日の 15時(UTC)から 19日の 24時(UTC)まで一時的に
視程: 4000m
高度2600ftの雲は散在している
高度3300ftの雲は散在している, 積乱雲.
激しい雷雨, 雨

TAF: DFFD 181700Z 1818/1924 24010KT 9999 FEW026 TEMPO 1818/1824 TS FEW026 FEW033CB TEMPO 1915/1924 4000 TSRA SCT026 SCT033CB

4,000以上の空港の気象観測と天気予報(METAR報とTAF報)

利用可能な観測所は地図上に黄色い丸と赤い丸で示す。

丸の上にカーソルを重ねると観測所名を参照できる。

次にクリックすると気象観測と天気予報を参照できる。

マップの切り替え:黒色「×」印の緑ボタンをクリックして拡大、「-」印の緑ボタンをクリックして縮小、緑色の三角印をクリックして隣りの地図に切り替え


METAR-TAF: